createdAt,value
2022-11-13T00:02:44.959Z,12.02
2022-11-13T00:08:07.982Z,12.70
2022-11-13T00:13:30.702Z,12.75
2022-11-13T00:18:55.340Z,12.57
2022-11-13T00:24:17.843Z,12.90
2022-11-13T00:29:39.298Z,13.27
2022-11-13T00:35:00.573Z,13.77
2022-11-13T00:46:57.247Z,13.40
2022-11-13T00:52:19.095Z,13.70
2022-11-13T00:57:42.104Z,13.45
2022-11-13T01:03:03.609Z,12.98
2022-11-13T01:08:25.303Z,14.32
2022-11-13T01:13:50.129Z,13.68
2022-11-13T01:19:11.365Z,14.45
2022-11-13T01:24:32.640Z,14.63
2022-11-13T01:29:55.488Z,13.75
2022-11-13T01:35:17.400Z,13.80
2022-11-13T01:40:46.393Z,15.02
2022-11-13T01:46:17.105Z,15.18
2022-11-13T01:51:42.002Z,14.18
2022-11-13T01:57:05.350Z,14.65
2022-11-13T02:02:27.990Z,14.90
2022-11-13T02:07:50.215Z,14.82
2022-11-13T02:13:13.524Z,14.70
2022-11-13T02:18:38.558Z,14.00
2022-11-13T02:24:14.792Z,13.45
2022-11-13T02:29:36.164Z,14.70
2022-11-13T02:34:57.214Z,15.35
2022-11-13T02:40:20.258Z,14.80
2022-11-13T02:45:41.708Z,14.85
2022-11-13T02:51:03.228Z,15.50
2022-11-13T02:56:26.279Z,15.63
2022-11-13T03:01:48.066Z,15.40
2022-11-13T03:07:09.766Z,14.75
2022-11-13T03:12:32.253Z,15.70
2022-11-13T03:17:53.409Z,15.48
2022-11-13T03:23:14.774Z,15.20
2022-11-13T03:28:38.060Z,16.38
2022-11-13T03:34:00.170Z,17.30
2022-11-13T03:39:21.641Z,21.30
2022-11-13T03:44:44.490Z,16.35
2022-11-13T03:50:06.473Z,16.27
2022-11-13T03:55:27.852Z,16.15
2022-11-13T04:00:50.637Z,14.57
2022-11-13T04:06:11.944Z,15.57
2022-11-13T04:11:33.138Z,15.93
2022-11-13T04:16:55.707Z,16.27
2022-11-13T04:22:16.949Z,16.65
2022-11-13T04:27:38.387Z,17.00
2022-11-13T04:33:01.155Z,16.67
2022-11-13T04:38:22.330Z,16.50
2022-11-13T04:43:43.773Z,15.25
2022-11-13T04:49:06.380Z,17.13
2022-11-13T04:54:29.013Z,16.02
2022-11-13T04:59:50.458Z,15.60
2022-11-13T05:05:13.085Z,16.85
2022-11-13T05:10:34.643Z,16.63
2022-11-13T05:16:01.519Z,16.10
2022-11-13T05:21:24.225Z,16.80
2022-11-13T05:26:45.480Z,17.50
2022-11-13T05:32:06.714Z,18.33
2022-11-13T05:37:30.140Z,17.83
2022-11-13T05:42:51.306Z,18.50
2022-11-13T05:48:14.100Z,18.08
2022-11-13T05:53:38.260Z,17.63
2022-11-13T05:59:01.460Z,19.55
2022-11-13T06:04:22.895Z,17.42
2022-11-13T06:09:48.466Z,18.77
2022-11-13T06:15:10.455Z,17.98
2022-11-13T06:20:31.989Z,16.83
2022-11-13T06:26:01.347Z,17.25
2022-11-13T06:31:24.837Z,16.17
2022-11-13T06:36:46.138Z,16.50
2022-11-13T06:42:08.664Z,18.02
2022-11-13T06:47:29.861Z,17.02
2022-11-13T06:52:51.209Z,16.95
2022-11-13T06:58:13.889Z,18.60
2022-11-13T07:03:35.922Z,16.27
2022-11-13T07:08:57.128Z,17.75
2022-11-13T07:14:19.682Z,15.90
2022-11-13T07:19:41.352Z,17.13
2022-11-13T07:25:02.493Z,16.10
2022-11-13T07:30:25.551Z,16.65
2022-11-13T07:35:46.714Z,16.88
2022-11-13T07:41:08.574Z,16.98
2022-11-13T07:46:31.415Z,16.15
2022-11-13T07:51:52.577Z,16.10
2022-11-13T07:57:14.709Z,16.45
2022-11-13T08:02:37.402Z,15.85
2022-11-13T08:07:58.565Z,16.20
2022-11-13T08:13:19.780Z,14.38
2022-11-13T08:18:42.635Z,14.80
2022-11-13T08:24:03.682Z,14.50
2022-11-13T08:29:25.215Z,16.63
2022-11-13T08:34:48.110Z,15.25
2022-11-13T08:40:10.670Z,15.23
2022-11-13T08:45:32.685Z,15.15
2022-11-13T08:50:56.743Z,15.07
2022-11-13T08:56:18.292Z,13.75
2022-11-13T09:01:39.433Z,15.00
2022-11-13T09:07:01.913Z,15.05
2022-11-13T09:12:23.528Z,13.20
2022-11-13T09:17:48.961Z,13.73
2022-11-13T09:23:11.751Z,14.95
2022-11-13T09:28:35.446Z,14.13
2022-11-13T09:33:56.725Z,14.35
2022-11-13T09:39:19.318Z,15.63
2022-11-13T09:44:44.417Z,15.70
2022-11-13T09:50:18.045Z,15.98
2022-11-13T09:55:49.759Z,18.02
2022-11-13T10:01:17.281Z,17.33
2022-11-13T10:07:12.565Z,16.73
2022-11-13T10:12:35.973Z,17.73
2022-11-13T10:18:04.039Z,18.67
2022-11-13T10:23:29.550Z,18.30
2022-11-13T10:28:59.852Z,18.50
2022-11-13T10:34:21.679Z,17.75
2022-11-13T10:39:44.506Z,17.77
2022-11-13T10:45:15.857Z,17.30
2022-11-13T10:50:37.288Z,16.67
2022-11-13T10:56:00.574Z,17.23
2022-11-13T11:01:27.545Z,19.05
2022-11-13T11:07:18.518Z,16.08
2022-11-13T11:12:31.452Z,16.20
2022-11-13T11:18:01.189Z,15.73
2022-11-13T11:23:28.350Z,15.30
2022-11-13T11:28:55.165Z,16.80
2022-11-13T11:34:23.252Z,16.92
2022-11-13T11:39:51.305Z,17.00
2022-11-13T11:45:17.924Z,17.58
2022-11-13T11:50:51.981Z,16.92
2022-11-13T11:56:28.505Z,16.83
2022-11-13T12:02:34.983Z,17.05
2022-11-13T12:08:14.027Z,15.98
2022-11-13T12:13:41.072Z,16.30
2022-11-13T12:19:09.048Z,16.15
2022-11-13T12:24:47.536Z,16.15
2022-11-13T12:30:17.516Z,15.05
2022-11-13T12:35:39.772Z,16.40
2022-11-13T12:41:10.709Z,14.07
2022-11-13T12:46:37.467Z,14.13
2022-11-13T12:52:00.408Z,12.75
2022-11-13T12:57:30.302Z,13.68
2022-11-13T13:02:59.894Z,13.75
2022-11-13T13:08:39.795Z,12.40
2022-11-13T13:14:25.039Z,13.38
2022-11-13T13:19:46.552Z,12.27
2022-11-13T13:25:23.786Z,12.90
2022-11-13T13:30:55.291Z,12.48
2022-11-13T13:36:30.691Z,12.32
2022-11-13T13:42:18.202Z,12.50
2022-11-13T13:47:44.397Z,12.55
2022-11-13T13:53:06.544Z,12.68
2022-11-13T13:58:31.393Z,12.38
2022-11-13T14:04:06.665Z,12.23
2022-11-13T14:09:29.657Z,12.60
2022-11-13T14:14:50.915Z,12.52
2022-11-13T14:20:14.420Z,13.55
2022-11-13T14:25:36.027Z,13.73
2022-11-13T14:31:00.855Z,14.30
2022-11-13T14:36:31.566Z,14.93
2022-11-13T14:41:56.034Z,15.52
2022-11-13T14:47:27.327Z,18.00
2022-11-13T14:52:59.732Z,16.92
2022-11-13T14:58:28.750Z,18.58
2022-11-13T15:03:52.152Z,17.95
2022-11-13T15:09:18.666Z,19.05
2022-11-13T15:14:42.299Z,17.63
2022-11-13T15:20:09.298Z,17.42
2022-11-13T15:25:32.065Z,16.90
2022-11-13T15:30:53.459Z,16.25
2022-11-13T15:36:15.026Z,12.77
2022-11-13T15:41:38.094Z,12.27
2022-11-13T15:46:59.239Z,12.38
2022-11-13T15:52:21.069Z,12.10
2022-11-13T15:57:44.080Z,10.93
2022-11-13T16:03:11.396Z,9.32
2022-11-13T16:08:32.847Z,7.72
2022-11-13T16:13:55.405Z,7.38
2022-11-13T16:19:23.505Z,7.05
2022-11-13T16:24:45.234Z,6.95
2022-11-13T16:30:14.760Z,6.53
2022-11-13T16:35:37.079Z,7.85
2022-11-13T16:40:58.819Z,6.47
2022-11-13T16:46:27.633Z,6.07
2022-11-13T16:51:49.432Z,5.40
2022-11-13T16:57:13.849Z,6.80
2022-11-13T17:02:36.731Z,5.82
2022-11-13T17:08:01.788Z,5.50
2022-11-13T17:13:23.649Z,5.80
2022-11-13T17:19:16.330Z,5.30
2022-11-13T17:24:38.164Z,6.93
2022-11-13T17:30:00.939Z,5.22
2022-11-13T17:35:23.575Z,5.50
2022-11-13T17:40:45.002Z,5.03
2022-11-13T17:46:07.405Z,5.55
2022-11-13T17:51:30.477Z,5.63
2022-11-13T17:56:51.943Z,5.40
2022-11-13T18:02:13.322Z,6.53
2022-11-13T18:07:36.161Z,6.05
2022-11-13T18:12:57.248Z,6.30
2022-11-13T18:18:18.700Z,5.90
2022-11-13T18:23:42.597Z,6.38
2022-11-13T18:29:04.918Z,6.43
2022-11-13T18:34:28.437Z,6.72
2022-11-13T18:39:51.680Z,6.10
2022-11-13T18:45:16.223Z,7.18
2022-11-13T18:50:37.779Z,6.68
2022-11-13T18:56:02.073Z,7.57
2022-11-13T19:01:25.752Z,7.88
2022-11-13T19:06:47.410Z,8.00
2022-11-13T19:12:10.295Z,7.40
2022-11-13T19:17:31.902Z,8.07
2022-11-13T19:22:53.300Z,7.38
2022-11-13T19:28:17.329Z,8.35
2022-11-13T19:33:42.267Z,8.60
2022-11-13T19:39:04.317Z,9.25
2022-11-13T19:44:27.778Z,9.13
2022-11-13T19:49:49.559Z,11.57
2022-11-13T19:55:13.198Z,11.98
2022-11-13T20:00:36.971Z,11.48
2022-11-13T20:05:59.326Z,11.15
2022-11-13T20:11:20.892Z,11.48
2022-11-13T20:16:44.001Z,13.98
2022-11-13T20:22:05.265Z,14.23
2022-11-13T20:27:26.597Z,14.02
2022-11-13T20:32:52.560Z,15.15
2022-11-13T20:38:17.669Z,15.05
2022-11-13T20:43:38.926Z,16.05
2022-11-13T20:49:02.139Z,16.23
2022-11-13T20:54:23.849Z,16.58
2022-11-13T20:59:45.376Z,16.45
2022-11-13T21:05:08.756Z,16.65
2022-11-13T21:10:30.227Z,16.35
2022-11-13T21:15:56.000Z,16.80
2022-11-13T21:21:20.592Z,16.23
2022-11-13T21:26:41.952Z,16.02
2022-11-13T21:32:03.418Z,17.23
2022-11-13T21:37:26.634Z,16.83
2022-11-13T21:42:48.080Z,16.67
2022-11-13T21:48:09.558Z,16.90
2022-11-13T21:53:32.288Z,16.00
2022-11-13T21:58:55.737Z,17.42
2022-11-13T22:04:17.372Z,17.77
2022-11-13T22:09:40.185Z,17.50
2022-11-13T22:15:01.805Z,18.02
2022-11-13T22:20:23.079Z,19.05
2022-11-13T22:25:46.035Z,19.00
2022-11-13T22:31:09.345Z,18.83
2022-11-13T22:36:31.857Z,17.65
2022-11-13T22:41:54.692Z,19.20
2022-11-13T22:47:15.932Z,18.23
2022-11-13T22:52:37.140Z,18.13
2022-11-13T22:58:00.705Z,18.25
2022-11-13T23:03:22.056Z,18.70
2022-11-13T23:08:43.951Z,18.98
2022-11-13T23:14:09.148Z,18.85
2022-11-13T23:19:30.402Z,18.25
2022-11-13T23:24:51.563Z,18.80
2022-11-13T23:30:15.466Z,19.30
2022-11-13T23:35:36.953Z,19.20
2022-11-13T23:40:59.778Z,17.40
2022-11-13T23:46:22.263Z,19.10
2022-11-13T23:51:43.502Z,18.98
2022-11-13T23:57:04.805Z,19.55
